Time;durP1;ratioP1;P1;durP2;ratioP2;P2;SDS_P1;SDS_P2;PMS_P1;PMS_P2;Temp;Humidity;BMP_temperature;BMP_pressure;BME280_temperature;BME280_humidity;BME280_pressure;Samples;Min_cycle;Max_cycle;Signal;HPM_P1;HPM_P2
2022/06/02 00:01:19;;;;;;;6.05;3.25;;;;;;;19.71;50.62;102106.19;5076305;28;20056;-45
2022/06/02 00:04:04;;;;;;;6.18;3.90;;;;;;;19.71;50.20;102116.09;5077421;28;20355;-45
2022/06/02 00:06:47;;;;;;;6.15;3.60;;;;;;;19.69;50.78;102110.00;5079203;28;20048;-46
2022/06/02 00:09:36;;;;;;;5.55;3.60;;;;;;;19.70;50.65;102117.94;5075201;28;20044;-47
2022/06/02 00:12:24;;;;;;;5.32;3.42;;;;;;;19.68;50.44;102111.84;5080906;28;20054;-47
2022/06/02 00:15:00;;;;;;;5.00;3.20;;;;;;;19.67;50.73;102118.22;5079797;28;20441;-48
2022/06/02 00:17:45;;;;;;;5.53;3.63;;;;;;;19.67;50.69;102118.22;5078748;28;20054;-45
2022/06/02 00:20:24;;;;;;;6.45;3.65;;;;;;;19.65;50.84;102122.84;5076539;28;20049;-46
2022/06/02 00:23:08;;;;;;;5.63;3.33;;;;;;;19.66;50.74;102129.97;5075272;28;20070;-48
2022/06/02 00:25:45;;;;;;;;;;;;;;;19.64;50.24;102131.06;5081328;28;20067;-48
2022/06/02 00:28:27;;;;;;;4.20;2.65;;;;;;;19.65;50.20;102119.31;5076507;28;19924;-48
2022/06/02 00:31:04;;;;;;;4.60;3.10;;;;;;;19.63;50.26;102126.69;5074389;28;20054;-49
2022/06/02 00:33:50;;;;;;;3.67;2.63;;;;;;;19.60;50.30;102133.13;5082941;28;20044;-46
2022/06/02 00:36:32;;;;;;;4.57;2.92;;;;;;;19.58;50.66;102127.06;5083471;28;20043;-48
2022/06/02 00:38:59;;;;;;;4.13;3.13;;;;;;;19.58;50.58;102127.06;5082157;28;20043;-47
2022/06/02 00:41:54;;;;;;;4.00;2.67;;;;;;;19.56;50.35;102122.78;5079298;28;20056;-49
2022/06/02 00:44:43;;;;;;;6.13;3.55;;;;;;;19.55;50.69;102123.78;5081159;28;20115;-46
2022/06/02 00:47:45;;;;;;;5.18;2.95;;;;;;;19.52;50.94;102127.56;5079401;28;20057;-45
2022/06/02 00:50:35;;;;;;;4.78;3.08;;;;;;;19.54;50.95;102128.31;5081889;28;20119;-45
2022/06/02 00:53:29;;;;;;;5.22;3.08;;;;;;;19.52;50.36;102124.88;5073913;27;20044;-46
2022/06/02 00:59:32;;;;;;;3.30;2.33;;;;;;;19.51;50.47;102135.78;5076753;28;20040;-46
2022/06/02 01:01:58;;;;;;;3.70;3.13;;;;;;;19.51;50.97;102141.16;5080406;28;20045;-48
2022/06/02 01:04:26;;;;;;;4.38;2.80;;;;;;;19.48;50.76;102132.34;5079638;28;20310;-47
2022/06/02 01:07:08;;;;;;;3.40;2.55;;;;;;;19.48;50.53;102140.41;5080890;28;20051;-49
2022/06/02 01:09:47;;;;;;;4.82;2.88;;;;;;;19.48;50.49;102137.72;5077988;28;20064;-47
2022/06/02 01:12:50;;;;;;;4.63;2.83;;;;;;;19.46;50.71;102138.88;5080544;28;20438;-48
2022/06/02 01:15:42;;;;;;;6.28;2.67;;;;;;;19.44;50.75;102143.50;5077142;28;20044;-46
2022/06/02 01:18:23;;;;;;;4.68;2.60;;;;;;;19.45;50.42;102145.19;5079672;28;20066;-48
2022/06/02 01:21:15;;;;;;;4.55;2.65;;;;;;;19.43;50.95;102142.66;5080305;28;20115;-47
2022/06/02 01:24:03;;;;;;;3.35;2.50;;;;;;;19.43;51.25;102145.34;5077114;28;20473;-48
2022/06/02 01:26:42;;;;;;;5.13;3.00;;;;;;;19.43;50.61;102150.72;5079851;28;20045;-49
2022/06/02 01:29:32;;;;;;;3.25;2.33;;;;;;;19.43;50.73;102147.19;5084251;28;20058;-45
2022/06/02 01:32:06;;;;;;;4.15;2.47;;;;;;;19.43;51.02;102144.50;5080183;28;20284;-49
2022/06/02 01:34:44;;;;;;;3.85;2.30;;;;;;;19.43;50.89;102147.19;5083294;28;20507;-46
2022/06/02 01:37:20;;;;;;;3.85;2.35;;;;;;;19.42;50.67;102151.72;5076264;28;20046;-46
2022/06/02 01:40:09;;;;;;;5.70;2.60;;;;;;;19.41;50.81;102150.00;5080023;28;20111;-48
2022/06/02 01:42:53;;;;;;;3.92;2.53;;;;;;;19.40;51.18;102150.13;5077564;28;20156;-49
2022/06/02 01:45:20;;;;;;;3.65;2.47;;;;;;;19.41;51.10;102149.13;5076729;28;20046;-46
2022/06/02 01:48:02;;;;;;;3.45;2.38;;;;;;;19.40;50.59;102142.06;5078999;28;20056;-45
2022/06/02 01:50:47;;;;;;;3.85;2.45;;;;;;;19.38;50.61;102146.72;5081399;28;20429;-47
2022/06/02 01:53:34;;;;;;;3.28;2.40;;;;;;;19.39;50.67;102143.06;5082227;28;20062;-46
2022/06/02 01:56:14;;;;;;;3.50;2.50;;;;;;;19.38;50.64;102149.44;5080723;28;20122;-45
2022/06/02 01:58:56;;;;;;;3.80;2.05;;;;;;;19.38;50.69;102149.44;5079259;28;20055;-46
2022/06/02 02:01:44;;;;;;;4.00;2.58;;;;;;;19.36;50.67;102144.16;5081437;28;20055;-48
2022/06/02 02:04:26;;;;;;;3.60;2.33;;;;;;;19.34;51.24;102146.13;5078505;28;20072;-48
2022/06/02 02:07:02;;;;;;;3.75;2.50;;;;;;;19.35;50.58;102144.31;5076896;28;20062;-46
2022/06/02 02:09:56;;;;;;;4.07;2.55;;;;;;;19.33;51.21;102141.72;5078954;28;20400;-48
2022/06/02 02:12:45;;;;;;;4.18;2.70;;;;;;;19.34;50.57;102147.97;5077687;28;20040;-47
2022/06/02 02:15:31;;;;;;;4.07;2.00;;;;;;;19.34;50.52;102161.41;5076461;28;20056;-48
2022/06/02 02:18:14;;;;;;;3.30;2.10;;;;;;;19.32;50.65;102147.25;5078344;28;20455;-47
2022/06/02 02:21:03;;;;;;;3.47;2.30;;;;;;;19.32;50.91;102160.69;5077212;28;20051;-48
2022/06/02 02:23:47;;;;;;;3.63;2.58;;;;;;;19.30;51.05;102146.53;5051036;28;20052;-46
2022/06/02 02:26:17;;;;;;;;;;;;;;;19.31;51.08;102156.28;5078953;28;20052;-49
2022/06/02 02:29:00;;;;;;;2.88;2.10;;;;;;;19.31;51.14;102146.41;5079205;28;20177;-50
2022/06/02 02:31:51;;;;;;;4.07;2.30;;;;;;;19.29;50.77;102144.81;5079151;28;20052;-49
2022/06/02 02:34:41;;;;;;;2.65;1.92;;;;;;;19.27;51.00;102150.31;5079059;28;20072;-46
2022/06/02 02:37:14;;;;;;;6.72;2.03;;;;;;;19.29;51.06;102145.66;5077072;28;20141;-48
2022/06/02 02:40:12;;;;;;;5.10;2.75;;;;;;;19.27;50.46;102138.72;5077023;28;20048;-50
2022/06/02 02:43:05;;;;;;;2.85;2.00;;;;;;;19.25;50.60;102146.91;5080840;28;20058;-47
2022/06/02 02:45:55;;;;;;;2.78;2.17;;;;;;;19.24;51.16;102140.69;5078164;28;20044;-47
2022/06/02 02:48:40;;;;;;;2.75;1.83;;;;;;;19.24;50.81;102146.06;5077933;28;20052;-48
2022/06/02 02:51:13;;;;;;;2.83;1.83;;;;;;;19.24;50.56;102143.34;5078036;28;20415;-49
2022/06/02 02:54:15;;;;;;;3.05;2.03;;;;;;;19.24;50.90;102146.06;5077930;28;20051;-47
2022/06/02 02:57:05;;;;;;;2.15;1.92;;;;;;;19.23;51.14;102143.50;5078977;28;20068;-49
2022/06/02 02:59:50;;;;;;;2.60;2.03;;;;;;;19.23;51.35;102149.72;5067398;28;20055;-49
2022/06/02 03:02:27;;;;;;;2.92;2.03;;;;;;;19.21;50.50;102150.81;5076743;28;20455;-48
2022/06/02 03:05:08;;;;;;;2.35;1.88;;;;;;;19.19;51.39;102156.34;5074566;28;20044;-46
2022/06/02 03:07:35;;;;;;;2.42;1.98;;;;;;;19.20;50.84;102149.13;5078769;28;20399;-47
2022/06/02 03:10:36;;;;;;;3.28;2.40;;;;;;;19.19;50.71;102163.56;5075720;28;20412;-45
2022/06/02 03:13:21;;;;;;;2.60;1.85;;;;;;;19.19;51.20;102160.88;5040585;28;20052;-48
2022/06/02 03:16:09;;;;;;;2.80;1.98;;;;;;;19.18;50.80;102167.25;5077440;28;20044;-47
2022/06/02 03:18:51;;;;;;;2.63;1.80;;;;;;;19.18;50.82;102165.41;5077756;28;20049;-46
2022/06/02 03:21:53;;;;;;;3.42;2.20;;;;;;;19.17;51.36;102173.56;5076867;28;20384;-47
2022/06/02 03:24:46;;;;;;;2.83;2.30;;;;;;;19.16;50.86;102172.72;5077340;28;20056;-48
2022/06/02 03:27:32;;;;;;;2.83;2.22;;;;;;;19.15;50.72;102171.03;5077113;28;20044;-50
2022/06/02 03:30:10;;;;;;;3.00;1.80;;;;;;;19.16;50.55;102166.50;5084008;28;20047;-46
2022/06/02 03:32:58;;;;;;;2.03;1.80;;;;;;;19.13;51.27;102172.97;5081990;28;20083;-44
2022/06/02 03:36:06;;;;;;;2.80;1.83;;;;;;;19.12;50.82;102163.22;5077889;28;20040;-48
2022/06/02 03:39:03;;;;;;;4.90;1.90;;;;;;;19.11;50.80;102174.09;5063260;28;20047;-44
2022/06/02 03:41:42;;;;;;;2.78;1.90;;;;;;;19.11;50.65;102176.78;5076001;28;20282;-45
2022/06/02 03:44:19;;;;;;;2.75;2.17;;;;;;;19.11;51.30;102179.47;5076693;28;20054;-46
2022/06/02 03:47:25;;;;;;;3.55;2.05;;;;;;;19.09;51.25;102182.28;5076583;28;20051;-47
2022/06/02 03:50:25;;;;;;;2.40;1.83;;;;;;;19.09;50.67;102179.59;5080532;28;20044;-49
2022/06/02 03:53:22;;;;;;;2.70;1.90;;;;;;;19.09;51.03;102187.66;5077970;28;20045;-46
2022/06/02 03:56:01;;;;;;;2.20;1.58;;;;;;;19.08;51.12;102185.94;5076274;28;20041;-49
2022/06/02 03:59:00;;;;;;;3.80;2.00;;;;;;;19.08;51.11;102194.00;5076907;28;20040;-47
2022/06/02 04:01:35;;;;;;;6.55;2.35;;;;;;;19.09;51.07;102193.03;5078771;28;20046;-46
2022/06/02 04:04:08;;;;;;;2.33;1.80;;;;;;;19.10;51.56;102196.59;5076295;28;20226;-46
2022/06/02 04:06:41;;;;;;;4.82;1.70;;;;;;;19.09;51.48;102198.41;5081711;28;20123;-45
2022/06/02 04:09:36;;;;;;;5.10;1.90;;;;;;;19.09;51.54;102202.91;5080637;28;20052;-48
2022/06/02 04:15:21;;;;;;;2.85;2.08;;;;;;;19.08;51.00;102204.75;5076531;28;20044;-49
2022/06/02 04:18:01;;;;;;;6.25;2.72;;;;;;;19.08;51.47;102210.13;5079518;28;20044;-47
2022/06/02 04:20:41;;;;;;;4.30;2.78;;;;;;;19.08;51.04;102215.50;5079242;28;20048;-48
2022/06/02 04:23:41;;;;;;;6.40;2.58;;;;;;;19.08;50.79;102215.50;5082458;28;20076;-47
2022/06/02 04:26:38;;;;;;;6.28;3.20;;;;;;;19.07;51.13;102213.81;5078789;28;20331;-49
2022/06/02 04:29:23;;;;;;;5.68;3.30;;;;;;;19.08;51.69;102214.66;5086166;28;20048;-47
2022/06/02 04:32:22;;;;;;;5.07;3.40;;;;;;;19.09;51.03;102217.22;5082031;28;20044;-48
2022/06/02 04:35:18;;;;;;;7.75;3.58;;;;;;;19.08;50.91;102223.56;5079207;28;20054;-46
2022/06/02 04:38:14;;;;;;;7.18;3.75;;;;;;;19.10;51.34;102218.94;5078388;28;20044;-48
2022/06/02 04:41:04;;;;;;;9.50;4.13;;;;;;;19.09;51.23;102225.28;5080901;28;20048;-46
2022/06/02 04:44:08;;;;;;;6.68;3.60;;;;;;;19.11;50.85;102230.53;5077015;28;20066;-46
2022/06/02 04:46:54;;;;;;;11.35;4.00;;;;;;;19.14;50.50;102230.28;5079944;28;20040;-45
2022/06/02 04:49:31;;;;;;;6.95;4.35;;;;;;;19.15;50.52;102230.16;5077368;28;20035;-45
2022/06/02 04:52:20;;;;;;;8.52;4.50;;;;;;;19.18;51.21;102234.44;5077995;28;20036;-48
2022/06/02 04:55:24;;;;;;;7.85;4.70;;;;;;;19.20;50.97;102238.69;5076276;28;20411;-48
2022/06/02 04:58:19;;;;;;;8.00;4.78;;;;;;;19.23;50.88;102238.44;5080613;28;20048;-46
2022/06/02 05:00:54;;;;;;;9.77;4.82;;;;;;;19.28;50.79;102242.56;5081967;28;20127;-48
2022/06/02 05:03:58;;;;;;;6.85;4.15;;;;;;;19.30;50.38;102248.69;5077689;28;20047;-46
2022/06/02 05:06:42;;;;;;;8.20;4.95;;;;;;;19.33;50.22;102251.09;5079692;28;20524;-46
2022/06/02 05:09:33;;;;;;;7.65;5.00;;;;;;;19.35;50.31;102252.69;5077639;28;20044;-45
2022/06/02 05:12:13;;;;;;;8.15;5.05;;;;;;;19.37;50.06;102256.09;5081720;28;20040;-48
2022/06/02 05:15:10;;;;;;;7.50;4.47;;;;;;;19.38;50.25;102252.44;5080000;28;20055;-48
2022/06/02 05:17:45;;;;;;;8.68;5.10;;;;;;;19.41;50.46;102256.69;5086021;28;20062;-46
2022/06/02 05:20:36;;;;;;;7.63;4.90;;;;;;;19.41;50.45;102254.00;5077665;28;20059;-48
2022/06/02 05:23:30;;;;;;;7.60;5.03;;;;;;;19.43;50.05;102257.44;5076720;28;20079;-46
2022/06/02 05:26:44;;;;;;;8.70;5.22;;;;;;;19.43;50.62;102257.44;5078749;28;20323;-49
2022/06/02 05:29:20;;;;;;;7.38;4.70;;;;;;;19.43;49.66;102258.28;5080478;28;20044;-50
2022/06/02 05:32:25;;;;;;;8.95;5.00;;;;;;;19.44;49.82;102259.13;5074658;28;20205;-48
2022/06/02 05:35:08;;;;;;;8.40;5.20;;;;;;;19.45;50.39;102260.81;5075682;28;20127;-48
2022/06/02 05:37:45;;;;;;;9.35;5.05;;;;;;;19.43;49.70;102257.44;5075797;28;20119;-48
2022/06/02 05:40:38;;;;;;;9.38;5.03;;;;;;;19.42;49.64;102264.66;5077165;28;20052;-51
2022/06/02 05:43:31;;;;;;;8.27;5.25;;;;;;;19.42;49.88;102271.88;5077672;28;20049;-50
2022/06/02 05:46:25;;;;;;;8.18;5.15;;;;;;;19.41;49.94;102270.97;5073096;28;20071;-49
2022/06/02 05:49:07;;;;;;;7.68;4.72;;;;;;;19.40;50.34;102274.66;5075367;28;20395;-49
2022/06/02 05:52:05;;;;;;;8.57;5.20;;;;;;;19.42;49.86;102282.63;5072336;28;20049;-46
2022/06/02 05:54:52;;;;;;;6.55;4.40;;;;;;;19.42;49.77;102279.94;5075992;28;20368;-50
2022/06/02 05:57:19;;;;;;;10.88;4.82;;;;;;;19.42;50.45;102272.72;5076408;28;20032;-46
2022/06/02 05:59:54;;;;;;;8.15;4.90;;;;;;;19.42;50.50;102271.88;5077262;28;20044;-50
2022/06/02 06:02:23;;;;;;;9.02;5.55;;;;;;;19.43;49.93;102278.94;5078737;28;20041;-46
2022/06/02 06:04:59;;;;;;;9.43;5.30;;;;;;;19.42;50.07;102271.88;5074888;28;20036;-49
2022/06/02 06:07:41;;;;;;;7.88;4.75;;;;;;;19.42;49.69;102285.31;5077324;28;20312;-48
2022/06/02 06:10:24;;;;;;;8.68;4.78;;;;;;;19.43;49.80;102281.63;5073421;28;20574;-50
2022/06/02 06:13:17;;;;;;;7.80;5.03;;;;;;;19.43;49.76;102282.47;5078547;28;20032;-47
2022/06/02 06:16:05;;;;;;;7.78;4.78;;;;;;;19.43;50.22;102279.78;5075981;28;20490;-45
2022/06/02 06:18:56;;;;;;;6.70;4.75;;;;;;;19.43;49.79;102278.94;5075650;28;20048;-48
2022/06/02 06:21:45;;;;;;;7.75;4.97;;;;;;;19.42;50.10;102278.09;5078333;28;20048;-47
2022/06/02 06:24:33;;;;;;;8.18;4.95;;;;;;;19.43;50.39;102278.94;5076293;28;20052;-47
2022/06/02 06:27:18;;;;;;;6.97;4.80;;;;;;;19.44;50.14;102270.72;5081795;28;20044;-50
2022/06/02 06:30:05;;;;;;;6.45;3.92;;;;;;;19.44;49.84;102278.81;5076024;28;20047;-50
2022/06/02 06:32:54;;;;;;;6.88;4.50;;;;;;;19.44;50.11;102281.50;5077076;28;20048;-48
2022/06/02 06:35:41;;;;;;;7.20;4.57;;;;;;;19.45;50.35;102282.34;5076441;28;20039;-48
2022/06/02 06:38:36;;;;;;;7.05;3.90;;;;;;;19.45;49.92;102285.88;5076898;28;20049;-46
2022/06/02 06:41:22;;;;;;;7.22;4.70;;;;;;;19.45;49.61;102283.19;5078104;28;20070;-49
2022/06/02 06:44:46;;;;;;;8.38;4.43;;;;;;;19.45;50.11;102288.56;5076377;28;20056;-47
2022/06/02 06:47:22;;;;;;;7.75;4.63;;;;;;;19.48;50.22;102292.84;5024655;28;20340;-49
2022/06/02 06:50:13;;;;;;;6.20;3.88;;;;;;;19.47;49.83;102291.16;5022683;28;20049;-45
2022/06/02 06:53:02;;;;;;;7.15;4.38;;;;;;;19.48;50.11;102295.53;5068661;28;20049;-47
2022/06/02 06:55:51;;;;;;;6.88;4.15;;;;;;;19.47;49.97;102296.53;5075967;28;20155;-46
2022/06/02 06:58:40;;;;;;;5.90;3.83;;;;;;;19.49;49.96;102297.25;5077793;28;20051;-48
2022/06/02 07:01:14;;;;;;;7.53;4.20;;;;;;;19.51;50.00;102299.81;5074947;28;20051;-47
2022/06/02 07:04:07;;;;;;;6.38;3.92;;;;;;;19.52;50.45;102301.53;5074371;28;20049;-46
2022/06/02 07:07:22;;;;;;;8.38;4.70;;;;;;;19.53;50.39;102309.44;5078470;28;20349;-46
2022/06/02 07:10:04;;;;;;;7.07;4.43;;;;;;;19.55;49.69;102310.19;5039490;28;20064;-46
2022/06/02 07:13:14;;;;;;;5.70;3.72;;;;;;;19.56;50.63;102314.56;5043584;28;20826;-46
2022/06/02 07:15:47;;;;;;;4.90;3.30;;;;;;;19.57;50.34;102312.72;5077915;28;20044;-46
2022/06/02 07:18:32;;;;;;;6.20;3.60;;;;;;;19.58;50.19;102320.69;5080881;28;20044;-49
2022/06/02 07:21:21;;;;;;;6.90;3.55;;;;;;;19.58;50.04;102328.78;5080358;28;20036;-49
2022/06/02 07:23:56;;;;;;;5.20;3.50;;;;;;;19.60;49.56;102332.16;5075039;28;20056;-46
2022/06/02 07:26:39;;;;;;;6.18;4.07;;;;;;;19.59;49.66;102327.78;5078949;28;20127;-48
2022/06/02 07:29:29;;;;;;;9.10;3.63;;;;;;;19.60;49.75;102339.38;5080366;28;20372;-48
2022/06/02 07:32:14;;;;;;;5.05;3.60;;;;;;;19.61;50.12;102333.00;5084305;28;20080;-49
2022/06/02 07:35:14;;;;;;;5.30;3.53;;;;;;;19.61;49.89;102341.09;5078621;28;20097;-48
2022/06/02 07:37:57;;;;;;;6.13;3.50;;;;;;;19.61;49.90;102333.91;5077147;28;20073;-48
2022/06/02 07:40:58;;;;;;;6.20;3.45;;;;;;;19.63;50.15;102334.63;5076957;28;20055;-46
2022/06/02 07:43:43;;;;;;;6.43;4.07;;;;;;;19.63;50.04;102347.25;5078539;28;20449;-49
2022/06/02 07:46:43;;;;;;;5.38;3.58;;;;;;;19.63;49.84;102345.41;5076247;28;20316;-50
2022/06/02 07:49:54;;;;;;;7.65;3.58;;;;;;;19.63;49.50;102348.09;5079563;28;20048;-47
2022/06/02 07:52:38;;;;;;;16.00;4.57;;;;;;;19.65;49.71;102350.63;5004846;28;20132;-46
2022/06/02 07:55:18;;;;;;;6.63;3.47;;;;;;;19.66;50.15;102353.22;5071264;28;20067;-47
2022/06/02 07:58:04;;;;;;;18.83;4.18;;;;;;;19.66;49.99;102350.53;5077137;28;20923;-45
2022/06/02 08:00:51;;;;;;;11.63;4.28;;;;;;;19.66;49.51;102353.22;5077628;28;20338;-47
2022/06/02 08:03:37;;;;;;;15.05;4.45;;;;;;;19.68;50.03;102358.47;5080411;28;20123;-45
2022/06/02 08:06:22;;;;;;;14.00;4.22;;;;;;;19.69;49.68;102355.63;5079973;28;20040;-47
2022/06/02 08:09:39;;;;;;;12.98;3.40;;;;;;;19.69;49.58;102361.00;5080789;28;20522;-49
2022/06/02 08:12:12;;;;;;;7.45;3.70;;;;;;;19.71;50.01;102363.59;5076436;28;20052;-50
2022/06/02 08:15:04;;;;;;;16.08;3.78;;;;;;;19.70;50.06;102365.44;5077614;28;20062;-49
2022/06/02 08:18:02;;;;;;;7.18;3.45;;;;;;;19.72;49.49;102368.00;5079276;28;20051;-49
2022/06/02 08:20:34;;;;;;;10.48;3.30;;;;;;;19.73;49.42;102364.31;5061678;28;20060;-49
2022/06/02 08:23:19;;;;;;;7.22;3.50;;;;;;;19.74;49.66;102366.03;5075820;28;20044;-50
2022/06/02 08:26:18;;;;;;;12.25;3.40;;;;;;;19.75;49.56;102365.03;5080232;28;20115;-48
2022/06/02 08:29:13;;;;;;;6.82;2.90;;;;;;;19.77;49.50;102367.59;5080484;28;20486;-47
2022/06/02 08:32:05;;;;;;;10.07;3.55;;;;;;;19.76;49.92;102374.81;5086423;28;20048;-49
2022/06/02 08:34:38;;;;;;;7.72;3.22;;;;;;;19.76;49.38;102372.13;5081289;28;20067;-45
2022/06/02 08:37:37;;;;;;;7.88;3.20;;;;;;;19.76;49.28;102374.81;5078195;28;20428;-50
2022/06/02 08:40:52;;;;;;;6.82;2.83;;;;;;;19.76;49.63;102368.59;5075860;28;20040;-46
2022/06/02 08:43:21;;;;;;;8.57;2.65;;;;;;;19.77;49.38;102372.97;5080545;28;20040;-50
2022/06/02 08:45:59;;;;;;;6.72;3.03;;;;;;;19.76;49.60;102377.50;5079637;28;20784;-50
2022/06/02 08:48:37;;;;;;;8.15;2.97;;;;;;;19.77;49.62;102368.44;5079753;28;20038;-47
2022/06/02 08:51:31;;;;;;;10.18;3.08;;;;;;;19.77;49.63;102378.34;5081257;28;20056;-49
2022/06/02 08:54:17;;;;;;;6.75;2.70;;;;;;;19.80;49.34;102376.28;5085273;28;20181;-48
2022/06/02 08:57:07;;;;;;;10.77;2.80;;;;;;;19.81;49.25;102374.44;5083617;28;20123;-49
2022/06/02 08:59:53;;;;;;;4.00;2.60;;;;;;;19.83;49.28;102377.88;5080643;28;20052;-47
2022/06/02 09:02:41;;;;;;;5.97;2.65;;;;;;;19.83;48.68;102381.41;5082795;28;20180;-50
2022/06/02 09:05:49;;;;;;;5.07;2.72;;;;;;;19.86;49.23;102381.16;5082716;28;20123;-47
2022/06/02 09:08:35;;;;;;;10.60;4.00;;;;;;;19.87;49.46;102377.47;5078949;28;20065;-49
2022/06/02 09:11:01;;;;;;;7.45;3.75;;;;;;;19.89;49.41;102380.03;5081470;28;20040;-49
2022/06/02 09:13:49;;;;;;;11.82;4.45;;;;;;;19.89;49.31;102383.56;5082445;28;20044;-47
2022/06/02 09:16:22;;;;;;;12.05;4.15;;;;;;;19.90;49.60;102382.59;5079707;28;20051;-48
2022/06/02 09:19:14;;;;;;;11.07;4.43;;;;;;;19.91;49.49;102392.38;5082398;28;20408;-50
2022/06/02 09:21:55;;;;;;;11.82;3.53;;;;;;;19.93;49.44;102394.94;5077781;28;20048;-49
2022/06/02 09:24:33;;;;;;;13.77;4.38;;;;;;;19.94;49.05;102402.03;5079390;28;20305;-48
2022/06/02 09:27:17;;;;;;;21.70;4.22;;;;;;;19.94;49.50;102392.13;5080969;28;20036;-46
2022/06/02 09:29:47;;;;;;;9.75;3.97;;;;;;;19.97;49.49;102386.47;5082423;28;20127;-50
2022/06/02 09:32:27;;;;;;;13.27;4.38;;;;;;;20.01;49.06;102388.91;5080574;28;20036;-47
2022/06/02 09:34:54;;;;;;;11.65;4.30;;;;;;;20.04;49.75;102388.66;5080360;28;20131;-50
2022/06/02 09:37:52;;;;;;;17.33;4.45;;;;;;;20.06;49.26;102387.56;5079994;28;20063;-46
2022/06/02 09:40:45;;;;;;;13.63;3.95;;;;;;;20.09;49.30;102395.34;5056275;28;20126;-48
2022/06/02 09:43:21;;;;;;;10.88;4.45;;;;;;;20.12;49.74;102389.72;5081933;28;20047;-50
2022/06/02 09:46:16;;;;;;;10.88;3.63;;;;;;;20.16;49.36;102390.31;5083399;28;20345;-46
2022/06/02 09:49:53;;;;;;;10.73;4.20;;;;;;;20.18;49.65;102380.25;5082642;28;20147;-48
2022/06/02 09:52:39;;;;;;;9.38;3.70;;;;;;;20.23;49.31;102385.28;5056847;28;20409;-51
2022/06/02 09:55:22;;;;;;;6.47;2.70;;;;;;;20.26;49.24;102376.91;5077576;28;20046;-50
2022/06/02 09:58:16;;;;;;;6.78;3.33;;;;;;;20.28;49.23;102389.28;5079359;28;20055;-49
2022/06/02 10:00:56;;;;;;;7.38;2.90;;;;;;;20.30;49.20;102386.44;5079617;28;20106;-47
2022/06/02 10:03:45;;;;;;;15.10;3.60;;;;;;;20.32;48.78;102376.41;5080476;28;20079;-48
2022/06/02 10:06:23;;;;;;;9.65;3.10;;;;;;;20.35;49.10;102377.00;5084889;28;20048;-48
2022/06/02 10:09:14;;;;;;;11.77;3.45;;;;;;;20.37;49.38;102376.84;5082535;28;20048;-49
2022/06/02 10:15:38;;;;;;;5.80;2.67;;;;;;;20.42;48.95;102371.91;5077867;28;20055;-47
2022/06/02 10:18:18;;;;;;;7.22;2.55;;;;;;;20.43;48.77;102369.09;5080424;28;20094;-47
2022/06/02 10:21:09;;;;;;;7.82;3.15;;;;;;;20.45;49.23;102364.44;5076292;28;20131;-48
2022/06/02 10:24:16;;;;;;;8.55;2.78;;;;;;;20.49;48.81;102358.81;5081293;28;20070;-50
2022/06/02 10:27:01;;;;;;;5.78;2.70;;;;;;;20.51;48.78;102356.84;5083128;28;20127;-46
2022/06/02 10:29:30;;;;;;;5.35;2.30;;;;;;;20.53;48.73;102363.78;5081150;28;20070;-50
2022/06/02 10:32:38;;;;;;;5.53;2.42;;;;;;;20.53;49.03;102361.09;5082818;28;20043;-46
2022/06/02 10:35:25;;;;;;;6.00;3.00;;;;;;;20.55;49.34;102356.44;5080123;28;20359;-52
2022/06/02 10:38:09;;;;;;;5.70;2.70;;;;;;;20.58;48.58;102360.69;5081198;28;20102;-48
2022/06/02 10:41:17;;;;;;;5.65;2.47;;;;;;;20.58;49.09;102358.88;5082626;28;20063;-50
2022/06/02 10:43:58;;;;;;;5.30;2.67;;;;;;;20.59;48.29;102370.50;5075607;28;20136;-48
2022/06/02 10:46:53;;;;;;;5.18;2.63;;;;;;;20.59;47.88;102357.03;5076378;28;20129;-50
2022/06/02 10:49:38;;;;;;;4.75;2.67;;;;;;;20.60;47.81;102356.03;5079984;28;20371;-50
2022/06/02 10:52:42;;;;;;;4.30;2.55;;;;;;;20.59;47.05;102357.03;5080294;28;20436;-48
2022/06/02 10:55:47;;;;;;;8.45;2.85;;;;;;;20.59;47.06;102355.19;5080198;28;20040;-51
2022/06/02 10:58:28;;;;;;;;;;;;;;;20.61;46.99;102349.66;5082984;28;20143;-50
2022/06/02 11:01:19;;;;;;;8.98;3.47;;;;;;;20.62;47.10;102352.25;5077913;28;19928;-48
2022/06/02 11:04:14;;;;;;;4.80;2.88;;;;;;;20.62;46.87;102340.59;5084045;28;20050;-51
2022/06/02 11:07:09;;;;;;;4.97;3.10;;;;;;;20.63;46.92;102335.09;5077442;28;20048;-47
2022/06/02 11:10:00;;;;;;;4.07;2.70;;;;;;;20.63;46.06;102345.84;5061940;28;20126;-51
2022/06/02 11:12:36;;;;;;;3.85;2.55;;;;;;;20.64;46.51;102334.09;5078774;28;20054;-50
2022/06/02 11:15:02;;;;;;;3.95;2.45;;;;;;;20.65;46.54;102334.94;5076521;28;20123;-47
2022/06/02 11:17:55;;;;;;;5.22;2.97;;;;;;;20.66;45.92;102325.84;5078649;28;20141;-49
2022/06/02 11:20:34;;;;;;;4.47;2.67;;;;;;;20.65;45.82;102327.69;5076761;28;20047;-49
2022/06/02 11:23:19;;;;;;;7.10;3.28;;;;;;;20.68;45.47;102327.44;5077989;28;20059;-50
2022/06/02 11:26:09;;;;;;;4.80;2.45;;;;;;;20.69;45.19;102325.59;5077381;28;20091;-48
2022/06/02 11:28:44;;;;;;;4.03;2.40;;;;;;;20.70;45.37;102325.47;5084383;28;20178;-47
2022/06/02 11:32:11;;;;;;;3.92;2.30;;;;;;;20.72;45.85;102325.34;5079734;28;20036;-51
2022/06/02 11:34:59;;;;;;;4.03;2.05;;;;;;;20.76;46.26;102329.47;5024217;28;20045;-50
2022/06/02 11:38:03;;;;;;;4.13;2.55;;;;;;;20.77;45.69;102325.78;5077099;28;20040;-51
2022/06/02 11:41:04;;;;;;;3.40;2.40;;;;;;;20.79;45.57;102320.25;5078861;28;20052;-48
2022/06/02 11:44:11;;;;;;;3.67;2.17;;;;;;;20.79;45.27;102321.13;5076147;28;20101;-45
2022/06/02 11:46:50;;;;;;;4.13;1.73;;;;;;;20.82;45.74;102319.97;5070497;28;20043;-50
2022/06/02 11:49:46;;;;;;;3.50;1.88;;;;;;;20.85;46.27;102319.72;5080110;28;20067;-48
2022/06/02 11:52:38;;;;;;;4.43;1.80;;;;;;;20.85;46.06;102309.78;5084439;28;20059;-48
2022/06/02 11:55:23;;;;;;;8.05;1.92;;;;;;;20.87;46.38;102307.81;5079520;28;20048;-50
2022/06/02 11:58:12;;;;;;;2.65;1.70;;;;;;;20.90;46.43;102312.06;5074997;28;20417;-50
2022/06/02 12:01:13;;;;;;;3.38;1.67;;;;;;;20.91;46.21;102306.53;5073505;28;20066;-50
2022/06/02 12:04:05;;;;;;;2.38;1.50;;;;;;;20.93;46.32;102299.16;5075344;28;20060;-48
2022/06/02 12:07:09;;;;;;;3.30;1.40;;;;;;;20.94;45.11;102308.97;5081599;28;20040;-47
2022/06/02 12:10:19;;;;;;;4.15;1.73;;;;;;;20.96;45.63;102314.22;5085530;28;20055;-48
2022/06/02 12:12:51;;;;;;;2.38;1.30;;;;;;;20.97;45.12;102302.44;5081835;28;20354;-47
2022/06/02 12:16:09;;;;;;;5.50;1.52;;;;;;;20.98;45.17;102311.38;5077723;28;20045;-49
2022/06/02 12:18:43;;;;;;;2.70;1.33;;;;;;;21.00;45.05;102309.41;5049615;28;20496;-48
2022/06/02 12:21:33;;;;;;;1.35;1.02;;;;;;;20.99;44.39;102303.16;5077035;28;20127;-51
2022/06/02 12:24:12;;;;;;;1.75;0.90;;;;;;;21.01;44.66;102305.72;5076569;28;20636;-48
2022/06/02 12:26:55;;;;;;;1.58;1.10;;;;;;;21.02;44.18;102299.31;5079602;28;20438;-49
2022/06/02 12:29:37;;;;;;;3.35;1.10;;;;;;;21.02;43.65;102305.56;5084922;28;20056;-49
2022/06/02 12:32:48;;;;;;;1.48;1.10;;;;;;;21.02;43.16;102302.88;5082496;28;20051;-50
2022/06/02 12:35:29;;;;;;;1.77;0.88;;;;;;;21.04;43.20;102292.81;5084453;28;20420;-50
2022/06/02 12:37:55;;;;;;;0.77;0.75;;;;;;;21.05;42.62;102301.75;5082560;28;20472;-48
2022/06/02 12:40:30;;;;;;;2.13;0.93;;;;;;;21.05;42.64;102296.34;5083121;28;20127;-51
2022/06/02 12:43:21;;;;;;;2.72;1.30;;;;;;;21.05;43.08;102294.50;5081600;28;20040;-48
2022/06/02 12:46:25;;;;;;;1.30;1.08;;;;;;;21.06;43.41;102296.22;5078326;28;20058;-49
2022/06/02 12:49:26;;;;;;;2.25;1.13;;;;;;;21.07;43.77;102289.00;5081051;28;20102;-47
2022/06/02 12:52:16;;;;;;;2.78;0.98;;;;;;;21.08;43.80;102290.69;5083754;28;20137;-48
2022/06/02 12:55:01;;;;;;;1.15;0.90;;;;;;;21.09;43.65;102287.00;5076916;28;20137;-47
2022/06/02 12:58:00;;;;;;;1.63;0.80;;;;;;;21.10;44.26;102283.31;5081725;28;20050;-50
2022/06/02 13:00:48;;;;;;;1.10;1.00;;;;;;;21.11;44.78;102285.88;5077962;28;20054;-51
2022/06/02 13:03:52;;;;;;;2.00;1.10;;;;;;;21.11;44.36;102279.66;5082081;28;20064;-49
2022/06/02 13:06:26;;;;;;;1.55;0.80;;;;;;;21.14;44.64;102280.19;5080881;28;20053;-49
2022/06/02 13:09:30;;;;;;;2.53;0.77;;;;;;;21.15;44.94;102276.53;5082303;28;20442;-48